Time;durP1;ratioP1;P1;durP2;ratioP2;P2;SDS_P1;SDS_P2;PMS_P1;PMS_P2;Temp;Humidity;BMP_temperature;BMP_pressure;BME280_temperature;BME280_humidity;BME280_pressure;Samples;Min_cycle;Max_cycle;Signal;HPM_P1;HPM_P2
2021/12/03 00:01:18;;;;;;;;;11.75;11.25;;;;;-147.17;100.00;50442.44;5044274;28;52997;-73
2021/12/03 00:03:44;;;;;;;;;15.00;14.25;;;;;-147.17;100.00;50458.19;5051080;28;51277;-73
2021/12/03 00:06:10;;;;;;;;;12.50;12.25;;;;;-147.17;100.00;50414.88;5056662;28;51400;-78
2021/12/03 00:08:36;;;;;;;;;12.50;12.25;;;;;-147.17;100.00;50456.22;5065757;27;52980;-71
2021/12/03 00:11:03;;;;;;;;;14.75;14.00;;;;;-147.17;100.00;50430.63;5050572;28;52769;-74
2021/12/03 00:13:32;;;;;;;;;16.00;14.50;;;;;-147.17;100.00;50422.75;5049407;28;51378;-73
2021/12/03 00:15:59;;;;;;;;;17.75;13.50;;;;;-147.17;100.00;50430.63;5054698;28;50954;-73
2021/12/03 00:18:25;;;;;;;;;11.25;11.00;;;;;-147.17;100.00;50432.59;5056067;28;51162;-71
2021/12/03 00:20:52;;;;;;;;;13.25;12.75;;;;;-147.17;100.00;50434.56;5058105;28;51121;-74
2021/12/03 00:23:20;;;;;;;;;14.75;11.00;;;;;-147.17;100.00;50448.34;5055670;28;51221;-72
2021/12/03 00:25:45;;;;;;;;;13.50;12.75;;;;;-147.17;100.00;50432.59;5050659;28;51230;-73
2021/12/03 00:28:11;;;;;;;;;11.75;10.75;;;;;-147.17;100.00;50414.88;5053621;28;53280;-74
2021/12/03 00:30:37;;;;;;;;;14.50;14.00;;;;;-147.17;100.00;50462.13;5050584;28;51269;-75
2021/12/03 00:33:05;;;;;;;;;13.00;12.25;;;;;-147.17;100.00;50430.63;5055922;28;51117;-75
2021/12/03 00:35:31;;;;;;;;;11.75;11.75;;;;;-147.17;100.00;50403.06;5051630;28;51529;-73
2021/12/03 00:37:57;;;;;;;;;13.00;12.00;;;;;-147.17;100.00;50432.59;5057446;28;51906;-75
2021/12/03 00:40:26;;;;;;;;;15.25;12.00;;;;;-147.17;100.00;50418.81;5053477;28;51103;-75
2021/12/03 00:42:52;;;;;;;;;13.00;12.75;;;;;-147.17;100.00;50460.16;5053494;28;51073;-74
2021/12/03 00:45:18;;;;;;;;;13.50;13.00;;;;;-147.17;100.00;50440.47;5056413;28;51340;-74
2021/12/03 00:47:44;;;;;;;;;9.00;9.00;;;;;-147.17;100.00;50424.72;5053286;28;51140;-73
2021/12/03 00:50:12;;;;;;;;;14.50;13.00;;;;;-147.17;100.00;50456.22;5056373;28;51061;-80
2021/12/03 00:52:37;;;;;;;;;13.75;13.25;;;;;-147.17;100.00;50422.75;5071579;28;51108;-75
2021/12/03 00:55:05;;;;;;;;;13.00;12.75;;;;;-147.17;100.00;50442.44;5059586;28;51045;-80
2021/12/03 00:57:30;;;;;;;;;11.00;11.00;;;;;-147.17;100.00;50448.34;5056341;28;52269;-75
2021/12/03 00:59:56;;;;;;;;;15.50;15.00;;;;;-147.17;100.00;50438.50;5053993;28;51124;-70
2021/12/03 01:02:21;;;;;;;;;11.00;8.25;;;;;-147.17;100.00;50438.50;5054548;28;51202;-71
2021/12/03 01:04:47;;;;;;;;;13.50;12.25;;;;;-147.17;100.00;50426.69;5055288;28;51190;-74
2021/12/03 01:07:13;;;;;;;;;11.75;10.75;;;;;-147.17;100.00;50440.47;5056610;28;51995;-74
2021/12/03 01:09:39;;;;;;;;;10.25;10.25;;;;;-147.17;100.00;50432.59;5046446;28;51336;-74
2021/12/03 01:12:05;;;;;;;;;16.00;12.50;;;;;-147.17;100.00;50460.16;5056517;28;51055;-74
2021/12/03 01:14:30;;;;;;;;;13.00;12.00;;;;;-147.17;100.00;50395.19;5047364;28;51056;-74
2021/12/03 01:16:56;;;;;;;;;14.75;12.00;;;;;-147.17;100.00;50408.97;5052034;28;51073;-75
2021/12/03 01:19:21;;;;;;;;;11.50;11.25;;;;;-147.17;100.00;50442.44;5060770;28;51046;-74
2021/12/03 01:21:47;;;;;;;;;11.50;10.75;;;;;-147.17;100.00;50418.81;5045379;27;50825;-74
2021/12/03 01:24:12;;;;;;;;;12.00;12.00;;;;;-147.17;100.00;50428.66;5053704;28;51307;-74
2021/12/03 01:26:39;;;;;;;;;12.00;11.00;;;;;-147.17;100.00;50432.59;5045611;28;51857;-74
2021/12/03 01:29:06;;;;;;;;;13.50;12.25;;;;;-147.17;100.00;50403.06;5060143;28;51120;-74
2021/12/03 01:31:31;;;;;;;;;10.75;10.50;;;;;-147.17;100.00;50434.56;5047733;28;51156;-73
2021/12/03 01:33:57;;;;;;;;;14.75;12.25;;;;;-147.17;100.00;50448.34;5059717;28;51610;-73
2021/12/03 01:36:22;;;;;;;;;15.50;12.50;;;;;-147.17;100.00;50426.69;5053958;28;52855;-73
2021/12/03 01:38:48;;;;;;;;;11.75;11.25;;;;;-147.17;100.00;50422.75;5050174;28;51217;-73
2021/12/03 01:41:14;;;;;;;;;16.50;13.75;;;;;-147.17;100.00;50446.38;5051815;28;51897;-76
2021/12/03 01:43:41;;;;;;;;;10.25;10.25;;;;;-147.17;100.00;50446.38;5046476;28;51178;-74
2021/12/03 01:46:09;;;;;;;;;9.75;9.75;;;;;-147.17;100.00;50432.59;5052611;28;52660;-74
2021/12/03 01:48:36;;;;;;;;;9.50;7.75;;;;;-147.17;100.00;50446.38;5049959;28;51237;-73
2021/12/03 01:51:03;;;;;;;;;11.00;9.00;;;;;-147.17;100.00;50436.53;5047331;28;51252;-72
2021/12/03 01:53:31;;;;;;;;;13.50;10.50;;;;;-147.17;100.00;50407.00;5048617;28;51241;-74
2021/12/03 01:56:05;;;;;;;;;11.00;9.75;;;;;-147.17;100.00;50458.19;5047563;28;52152;-73
2021/12/03 01:58:30;;;;;;;;;11.00;10.00;;;;;-147.17;100.00;50420.78;5050553;28;53245;-74
2021/12/03 02:00:59;;;;;;;;;10.25;9.75;;;;;-147.17;100.00;50414.88;5053872;28;51115;-73
2021/12/03 02:03:29;;;;;;;;;4.75;4.00;;;;;-147.17;100.00;50434.56;5045039;28;51177;-74
2021/12/03 02:05:56;;;;;;;;;10.50;10.50;;;;;-147.17;100.00;50416.84;5045844;28;52158;-75
2021/12/03 02:08:22;;;;;;;;;6.25;6.25;;;;;-147.17;100.00;50434.56;5050539;28;51282;-73
2021/12/03 02:10:47;;;;;;;;;10.50;8.25;;;;;-147.17;100.00;50401.09;5049488;28;51158;-73
2021/12/03 02:13:14;;;;;;;;;11.00;10.75;;;;;-147.17;100.00;50420.78;5046464;28;51099;-73
2021/12/03 02:15:42;;;;;;;;;7.75;7.00;;;;;-147.17;100.00;50428.66;5048816;28;52002;-73
2021/12/03 02:18:10;;;;;;;;;10.75;9.75;;;;;-147.17;100.00;50426.69;5049796;28;51332;-74
2021/12/03 02:20:52;;;;;;;;;10.25;10.00;;;;;-147.17;100.00;50438.50;5047176;28;51243;-76
2021/12/03 02:23:19;;;;;;;;;13.00;13.00;;;;;-147.17;100.00;50446.38;5047983;28;51198;-77
2021/12/03 02:25:45;;;;;;;;;10.00;8.00;;;;;-147.17;100.00;50422.75;5050690;28;51681;-76
2021/12/03 02:28:12;;;;;;;;;7.25;7.00;;;;;-147.17;100.00;50422.75;5048502;28;51439;-73
2021/12/03 02:30:38;;;;;;;;;10.00;10.00;;;;;-147.17;100.00;50426.69;5048183;28;51189;-73
2021/12/03 02:33:03;;;;;;;;;11.00;9.75;;;;;-147.17;100.00;50407.00;5040742;28;51306;-73
2021/12/03 02:35:29;;;;;;;;;12.00;7.75;;;;;-147.17;100.00;50420.78;5039905;28;51173;-73
2021/12/03 02:37:55;;;;;;;;;9.50;7.75;;;;;-147.17;100.00;50407.00;5038044;28;51902;-73
2021/12/03 02:40:21;;;;;;;;;8.25;8.25;;;;;-147.17;100.00;50422.75;5036218;28;51232;-73
2021/12/03 02:42:47;;;;;;;;;11.00;11.00;;;;;-147.17;100.00;50418.81;5041438;28;51294;-73
2021/12/03 02:45:14;;;;;;;;;12.00;10.50;;;;;-147.17;100.00;50416.84;5040670;28;52899;-74
2021/12/03 02:47:40;;;;;;;;;10.25;10.00;;;;;-147.17;100.00;50438.50;5043594;28;50999;-74
2021/12/03 02:50:08;;;;;;;;;7.25;7.25;;;;;-147.17;100.00;50434.56;5035153;28;51807;-74
2021/12/03 02:52:34;;;;;;;;;11.25;10.75;;;;;-147.17;100.00;50403.06;5040657;28;50889;-75
2021/12/03 02:54:59;;;;;;;;;8.00;8.00;;;;;-147.17;100.00;50430.63;5040165;28;52010;-74
2021/12/03 02:57:24;;;;;;;;;7.75;7.75;;;;;-147.17;100.00;50438.50;5039735;28;51990;-74
2021/12/03 02:59:50;;;;;;;;;12.00;11.50;;;;;-147.17;100.00;50418.81;5041151;28;51148;-74
2021/12/03 03:02:15;;;;;;;;;9.00;8.00;;;;;-147.17;100.00;50438.50;5038943;28;51118;-73
2021/12/03 03:04:41;;;;;;;;;11.25;10.25;;;;;-147.17;100.00;50442.44;5040090;28;51582;-73
2021/12/03 03:07:06;;;;;;;;;9.50;8.50;;;;;-147.17;100.00;50442.44;5048890;28;51263;-74
2021/12/03 03:09:32;;;;;;;;;11.00;11.00;;;;;-147.17;100.00;50426.69;5042462;28;51231;-74
2021/12/03 03:11:59;;;;;;;;;12.50;10.75;;;;;-147.17;100.00;50442.44;5044929;28;51240;-74
2021/12/03 03:14:24;;;;;;;;;5.25;2.00;;;;;-147.17;100.00;50434.56;5042054;28;51963;-74
2021/12/03 03:16:50;;;;;;;;;10.75;9.75;;;;;-147.17;100.00;50426.69;5036349;28;51483;-75
2021/12/03 03:19:18;;;;;;;;;8.00;8.00;;;;;-147.17;100.00;50438.50;5038055;28;51508;-74
2021/12/03 03:21:46;;;;;;;;;9.50;9.50;;;;;-147.17;100.00;50407.00;5043424;28;51442;-74
2021/12/03 03:24:13;;;;;;;;;10.25;10.00;;;;;-147.17;100.00;50422.75;5044329;28;51836;-75
2021/12/03 03:26:43;;;;;;;;;11.00;10.75;;;;;-147.17;100.00;50430.63;5044004;28;51177;-74
2021/12/03 03:29:10;;;;;;;;;8.00;7.25;;;;;-147.17;100.00;50440.47;5047412;28;51140;-75
2021/12/03 03:31:38;;;;;;;;;11.00;9.00;;;;;-147.17;100.00;50442.44;5044117;28;51400;-74
2021/12/03 03:34:05;;;;;;;;;10.50;10.25;;;;;-147.17;100.00;50436.53;5038915;28;53138;-74
2021/12/03 03:36:32;;;;;;;;;11.25;10.00;;;;;-147.17;100.00;50416.84;5040263;28;51490;-74
2021/12/03 03:38:57;;;;;;;;;11.25;9.50;;;;;-147.17;100.00;50422.75;5047780;28;51110;-74
2021/12/03 03:41:23;;;;;;;;;10.25;10.00;;;;;-147.17;100.00;50430.63;5048350;28;51318;-74
2021/12/03 03:43:48;;;;;;;;;10.25;10.00;;;;;-147.17;100.00;50422.75;5041685;28;51138;-74
2021/12/03 03:46:14;;;;;;;;;8.00;7.50;;;;;-147.17;100.00;50422.75;5051552;28;51089;-74
2021/12/03 03:48:39;;;;;;;;;9.00;8.00;;;;;-147.17;100.00;50414.88;5036137;28;52645;-74
2021/12/03 03:51:05;;;;;;;;;9.50;9.50;;;;;-147.17;100.00;50450.31;5040586;28;51469;-74
2021/12/03 03:53:30;;;;;;;;;8.00;7.75;;;;;-147.17;100.00;50422.75;5038099;28;52622;-73
2021/12/03 03:55:56;;;;;;;;;9.50;9.50;;;;;-147.17;100.00;50424.72;5046435;28;51389;-74
2021/12/03 03:58:21;;;;;;;;;8.00;7.25;;;;;-147.17;100.00;50410.94;5060743;27;51742;-74
2021/12/03 04:00:47;;;;;;;;;5.00;5.00;;;;;-147.17;100.00;50418.81;5044917;28;51205;-74
2021/12/03 04:03:13;;;;;;;;;9.00;7.50;;;;;-147.17;100.00;50414.88;5043563;28;51621;-73
2021/12/03 04:05:40;;;;;;;;;6.00;6.00;;;;;-147.17;100.00;50442.44;5051230;28;51578;-73
2021/12/03 04:08:06;;;;;;;;;5.75;5.75;;;;;-147.17;100.00;50407.00;5039194;28;51098;-73
2021/12/03 04:10:32;;;;;;;;;9.00;7.00;;;;;-147.17;100.00;50430.63;5043321;28;51135;-73
2021/12/03 04:12:57;;;;;;;;;7.50;7.25;;;;;-147.17;100.00;50422.75;5041929;28;52102;-74
2021/12/03 04:15:23;;;;;;;;;8.50;7.00;;;;;-147.17;100.00;50403.06;5041813;28;51603;-75
2021/12/03 04:17:49;;;;;;;;;7.00;6.00;;;;;-147.17;100.00;50428.66;5046611;28;53158;-74
2021/12/03 04:20:16;;;;;;;;;7.25;7.00;;;;;-147.17;100.00;50403.06;5049977;28;51440;-74
2021/12/03 04:22:42;;;;;;;;;6.50;6.00;;;;;-147.17;100.00;50407.00;5042123;28;51381;-74
2021/12/03 04:25:12;;;;;;;;;6.50;6.50;;;;;-147.17;100.00;50422.75;5052659;28;51561;-73
2021/12/03 04:27:37;;;;;;;;;7.00;7.00;;;;;-147.17;100.00;50420.78;5047171;28;51159;-73
2021/12/03 04:30:05;;;;;;;;;6.00;6.00;;;;;-147.17;100.00;50446.38;5040673;28;51338;-74
2021/12/03 04:32:31;;;;;;;;;6.00;5.75;;;;;-147.17;100.00;50403.06;5036262;28;52855;-74
2021/12/03 04:34:56;;;;;;;;;7.00;6.75;;;;;-147.17;100.00;50391.25;5035860;28;51225;-74
2021/12/03 04:37:22;;;;;;;;;10.25;8.00;;;;;-147.17;100.00;50412.91;5045919;28;51299;-75
2021/12/03 04:39:47;;;;;;;;;5.50;5.50;;;;;-147.17;100.00;50412.91;5036912;28;51142;-74
2021/12/03 04:42:12;;;;;;;;;7.50;7.00;;;;;-147.17;100.00;50414.88;5051726;28;51882;-74
2021/12/03 04:44:38;;;;;;;;;6.50;6.00;;;;;-147.17;100.00;50420.78;5042735;28;52479;-74
2021/12/03 04:47:04;;;;;;;;;7.00;7.00;;;;;-147.17;100.00;50426.69;5040354;28;51211;-74
2021/12/03 04:49:30;;;;;;;;;6.00;6.00;;;;;-147.17;100.00;50430.63;5036312;28;50977;-74
2021/12/03 04:51:56;;;;;;;;;7.00;7.00;;;;;-147.17;100.00;50416.84;5032064;28;52661;-75
2021/12/03 04:54:22;;;;;;;;;7.50;7.00;;;;;-147.17;100.00;50407.00;5038674;28;52084;-72
2021/12/03 04:56:47;;;;;;;;;10.25;10.00;;;;;-147.17;100.00;50418.81;5040071;28;51177;-73
2021/12/03 04:59:12;;;;;;;;;7.00;7.00;;;;;-147.17;100.00;50383.38;5048329;28;51025;-75
2021/12/03 05:01:39;;;;;;;;;9.50;7.00;;;;;-147.17;100.00;50405.03;5044771;28;51997;-73
2021/12/03 05:04:05;;;;;;;;;9.00;6.50;;;;;-147.17;100.00;50408.97;5025702;28;52630;-73
2021/12/03 05:06:42;;;;;;;;;6.00;6.00;;;;;-147.17;100.00;50407.00;5036539;28;51973;-73
2021/12/03 05:09:07;;;;;;;;;7.00;6.00;;;;;-147.17;100.00;50403.06;5053130;28;51273;-73
2021/12/03 05:11:32;;;;;;;;;8.75;7.00;;;;;-147.17;100.00;50399.13;5036738;28;52012;-73
2021/12/03 05:13:58;;;;;;;;;7.00;7.00;;;;;-147.17;100.00;50420.78;5049797;28;51086;-74
2021/12/03 05:16:23;;;;;;;;;5.00;5.00;;;;;-147.17;100.00;50387.31;5034824;28;51101;-74
2021/12/03 05:18:49;;;;;;;;;7.00;7.00;;;;;-147.17;100.00;50401.09;5047405;28;51147;-73
2021/12/03 05:21:15;;;;;;;;;6.00;6.00;;;;;-147.17;100.00;50424.72;5042871;28;51903;-73
2021/12/03 05:23:40;;;;;;;;;6.75;6.00;;;;;-147.17;100.00;50418.81;5048722;28;51306;-73
2021/12/03 05:26:05;;;;;;;;;6.25;5.00;;;;;-147.17;100.00;50407.00;5040040;28;52147;-74
2021/12/03 05:28:31;;;;;;;;;5.25;5.25;;;;;-147.17;100.00;50405.03;5038104;28;51187;-73
2021/12/03 05:30:57;;;;;;;;;6.75;6.75;;;;;-147.17;100.00;50446.38;5046501;28;51208;-73
2021/12/03 05:33:22;;;;;;;;;6.00;6.00;;;;;-147.17;100.00;50422.75;5038885;28;51314;-73
2021/12/03 05:35:48;;;;;;;;;7.50;7.00;;;;;-147.17;100.00;50399.13;5038271;28;51235;-74
2021/12/03 05:38:14;;;;;;;;;10.50;8.75;;;;;-147.17;100.00;50391.25;5038831;28;51452;-73
2021/12/03 05:40:39;;;;;;;;;9.75;9.75;;;;;-147.17;100.00;50383.38;5041100;28;52902;-74
2021/12/03 05:43:05;;;;;;;;;6.75;6.75;;;;;-147.17;100.00;50416.84;5041193;28;51109;-73
2021/12/03 05:45:32;;;;;;;;;6.50;6.50;;;;;-147.17;100.00;50418.81;5041737;28;51327;-73
2021/12/03 05:47:59;;;;;;;;;9.75;9.00;;;;;-147.17;100.00;50442.44;5035713;28;51236;-73
2021/12/03 05:50:25;;;;;;;;;10.75;8.25;;;;;-147.17;100.00;50416.84;5042644;28;51223;-73
2021/12/03 05:52:52;;;;;;;;;9.25;9.25;;;;;-147.17;100.00;50395.19;5038137;28;51241;-72
2021/12/03 05:55:19;;;;;;;;;10.00;10.00;;;;;-147.17;100.00;50418.81;5046334;28;51117;-73
2021/12/03 05:57:45;;;;;;;;;10.00;10.00;;;;;-147.17;100.00;50416.84;5046677;28;51426;-74
2021/12/03 06:00:18;;;;;;;;;9.25;7.25;;;;;-147.17;100.00;50405.03;5040462;28;53133;-74
2021/12/03 06:02:44;;;;;;;;;7.50;7.50;;;;;-147.17;100.00;50408.97;5039587;28;51645;-74
2021/12/03 06:05:10;;;;;;;;;10.00;7.00;;;;;-147.17;100.00;50418.81;5042030;28;51317;-74
2021/12/03 06:07:35;;;;;;;;;9.50;9.50;;;;;-147.17;100.00;50458.19;5051921;28;51068;-73
2021/12/03 06:10:01;;;;;;;;;10.00;7.00;;;;;-147.17;100.00;50407.00;5041304;28;53391;-73
2021/12/03 06:12:26;;;;;;;;;9.25;9.25;;;;;-147.17;100.00;50420.78;5044103;28;51567;-73
2021/12/03 06:14:51;;;;;;;;;7.25;7.25;;;;;-147.17;100.00;50401.09;5048788;28;53196;-74
2021/12/03 06:17:17;;;;;;;;;11.25;9.25;;;;;-147.17;100.00;50407.00;5052735;28;51021;-74
2021/12/03 06:19:43;;;;;;;;;13.25;10.25;;;;;-147.17;100.00;50405.03;5049019;28;51885;-74
2021/12/03 06:22:09;;;;;;;;;6.25;6.25;;;;;-147.17;100.00;50414.88;5039564;28;51543;-74
2021/12/03 06:24:36;;;;;;;;;9.50;8.75;;;;;-147.17;100.00;50418.81;5035731;28;52216;-75
2021/12/03 06:27:02;;;;;;;;;9.75;9.50;;;;;-147.17;100.00;50420.78;5054049;28;50987;-75
2021/12/03 06:29:27;;;;;;;;;9.25;6.50;;;;;-147.17;100.00;50401.09;5043695;28;53283;-74
2021/12/03 06:31:54;;;;;;;;;6.50;5.50;;;;;-147.17;100.00;50385.34;5048719;28;50904;-74
2021/12/03 06:34:19;;;;;;;;;7.00;7.00;;;;;-147.17;100.00;50393.22;5041072;28;51166;-74
2021/12/03 06:36:45;;;;;;;;;8.00;6.50;;;;;-147.17;100.00;50412.91;5040606;28;51309;-74
2021/12/03 06:39:11;;;;;;;;;10.25;9.00;;;;;-147.17;100.00;50418.81;5042719;28;51854;-73
2021/12/03 06:41:36;;;;;;;;;7.50;7.50;;;;;-147.17;100.00;50412.91;5038038;28;52042;-73
2021/12/03 06:44:04;;;;;;;;;9.00;7.00;;;;;-147.17;100.00;50412.91;5047602;28;54414;-74
2021/12/03 06:46:30;;;;;;;;;9.00;7.00;;;;;-147.17;100.00;50405.03;5050745;28;51339;-74
2021/12/03 06:48:56;;;;;;;;;9.00;6.50;;;;;-147.17;100.00;50377.47;5045432;28;51713;-74
2021/12/03 06:51:21;;;;;;;;;8.50;8.50;;;;;-147.17;100.00;50385.34;5048622;28;50968;-73
2021/12/03 06:53:57;;;;;;;;;11.00;8.75;;;;;-147.17;100.00;50377.47;5050610;28;51180;-73
2021/12/03 06:56:23;;;;;;;;;9.50;6.75;;;;;-147.17;100.00;50418.81;5042892;28;51112;-72
2021/12/03 06:58:49;;;;;;;;;6.00;6.00;;;;;-147.17;100.00;50387.31;5040270;28;52861;-72
2021/12/03 07:01:16;;;;;;;;;9.50;9.00;;;;;-147.17;100.00;50387.31;5064269;28;51158;-74
2021/12/03 07:03:42;;;;;;;;;10.25;10.00;;;;;-147.17;100.00;50412.91;5034641;28;51176;-74
2021/12/03 07:06:07;;;;;;;;;9.50;7.00;;;;;-147.17;100.00;50416.84;5036820;28;51382;-73
2021/12/03 07:08:33;;;;;;;;;6.25;6.25;;;;;-147.17;100.00;50430.63;5040545;28;51640;-74
2021/12/03 07:10:58;;;;;;;;;6.75;5.75;;;;;-147.17;100.00;50414.88;5041816;28;51053;-73
2021/12/03 07:13:26;;;;;;;;;10.25;9.00;;;;;-147.17;100.00;50414.88;5046951;28;51257;-75
2021/12/03 07:15:51;;;;;;;;;8.75;7.00;;;;;-147.17;100.00;50391.25;5046696;28;50917;-75
2021/12/03 07:18:17;;;;;;;;;9.75;9.00;;;;;-147.17;100.00;50408.97;5037892;28;51172;-74
2021/12/03 07:20:42;;;;;;;;;9.00;8.25;;;;;-147.17;100.00;50397.16;5036712;28;51826;-74
2021/12/03 07:23:07;;;;;;;;;10.25;9.50;;;;;-147.17;100.00;50418.81;5039849;28;51289;-74
2021/12/03 07:25:33;;;;;;;;;10.75;10.50;;;;;-147.17;100.00;50391.25;5037657;28;51774;-74
2021/12/03 07:27:58;;;;;;;;;7.75;7.00;;;;;-147.17;100.00;50383.38;5035286;28;51451;-75
2021/12/03 07:30:24;;;;;;;;;10.25;10.25;;;;;-147.17;100.00;50403.06;5032547;28;51351;-76
2021/12/03 07:32:50;;;;;;;;;9.50;7.50;;;;;-147.17;100.00;50393.22;5042477;28;51483;-68
2021/12/03 07:35:15;;;;;;;;;16.25;13.50;;;;;-147.17;100.00;50397.16;5040648;28;51295;-78
2021/12/03 07:37:43;;;;;;;;;10.75;10.25;;;;;-147.17;100.00;50416.84;5036281;28;51752;-79
2021/12/03 07:40:09;;;;;;;;;9.75;7.00;;;;;-147.17;100.00;50430.63;5030629;28;52032;-81
2021/12/03 07:42:35;;;;;;;;;7.50;7.00;;;;;-147.17;100.00;50369.59;5048230;28;50952;-78
2021/12/03 07:45:06;;;;;;;;;12.25;10.00;;;;;-147.17;100.00;50403.06;5031574;28;51037;-83
2021/12/03 07:47:31;;;;;;;;;7.00;6.00;;;;;-147.17;100.00;50403.06;5035368;28;52836;-80
2021/12/03 07:49:56;;;;;;;;;7.75;7.50;;;;;-147.17;100.00;50422.75;5037802;28;51417;-71
2021/12/03 07:52:22;;;;;;;;;7.00;7.00;;;;;-147.17;100.00;50407.00;5037977;28;51142;-74
2021/12/03 07:54:48;;;;;;;;;6.25;6.25;;;;;-147.17;100.00;50424.72;5039717;28;51315;-75
2021/12/03 07:57:14;;;;;;;;;14.75;12.25;;;;;-147.17;100.00;50422.75;5045830;28;52194;-76
2021/12/03 07:59:42;;;;;;;;;8.25;7.00;;;;;-147.17;100.00;50395.19;5037172;28;51067;-77
2021/12/03 08:02:07;;;;;;;;;6.75;5.75;;;;;-147.17;100.00;50422.75;5043591;28;51356;-75
2021/12/03 08:04:33;;;;;;;;;10.00;10.00;;;;;-147.17;100.00;50422.75;5054370;28;50995;-75
2021/12/03 08:07:00;;;;;;;;;7.50;6.25;;;;;-147.17;100.00;50420.78;5051805;28;51029;-76
2021/12/03 08:09:26;;;;;;;;;6.50;6.50;;;;;-147.17;100.00;50442.44;5043723;28;52263;-76
2021/12/03 08:11:51;;;;;;;;;9.25;7.00;;;;;-147.17;100.00;50393.22;5033580;28;53443;-76
2021/12/03 08:14:17;;;;;;;;;6.00;5.00;;;;;-147.17;100.00;50430.63;5038554;28;51111;-76
2021/12/03 08:16:43;;;;;;;;;6.00;6.00;;;;;-147.17;100.00;50407.00;5046099;28;52911;-76
2021/12/03 08:19:09;;;;;;;;;6.75;5.25;;;;;-147.17;100.00;50420.78;5035597;28;51041;-77
2021/12/03 08:21:34;;;;;;;;;5.00;4.50;;;;;-147.17;100.00;50408.97;5034591;28;50995;-76
2021/12/03 08:24:00;;;;;;;;;6.00;5.50;;;;;-147.17;100.00;50424.72;5045818;28;51245;-76
2021/12/03 08:26:27;;;;;;;;;5.75;4.00;;;;;-147.17;100.00;50418.81;5040984;28;52141;-75
2021/12/03 08:28:52;;;;;;;;;4.50;4.50;;;;;-147.17;100.00;50430.63;5048921;28;51054;-77
2021/12/03 08:31:18;;;;;;;;;3.00;2.75;;;;;-147.17;100.00;50434.56;5042531;28;51356;-77
2021/12/03 08:33:44;;;;;;;;;5.00;5.00;;;;;-147.17;100.00;50454.25;5045767;28;51318;-75
2021/12/03 08:36:10;;;;;;;;;6.75;6.50;;;;;-147.17;100.00;50450.31;5034102;28;52673;-76
2021/12/03 08:38:36;;;;;;;;;2.00;2.00;;;;;-147.17;100.00;50450.31;5035977;28;51309;-76
2021/12/03 08:41:03;;;;;;;;;5.50;5.00;;;;;-147.17;100.00;50430.63;5038670;28;52037;-76
2021/12/03 08:43:28;;;;;;;;;4.00;4.00;;;;;-147.17;100.00;50452.28;5046504;28;51141;-75
2021/12/03 08:45:54;;;;;;;;;5.00;5.00;;;;;-147.17;100.00;50446.38;5053691;28;51671;-77
2021/12/03 08:48:21;;;;;;;;;5.00;5.00;;;;;-147.17;100.00;50434.56;5045184;28;51248;-76
2021/12/03 08:50:51;;;;;;;;;3.00;3.00;;;;;-147.17;100.00;50424.72;5042577;28;51187;-76
2021/12/03 08:54:48;;;;;;;;;4.00;3.00;;;;;-147.17;100.00;50448.34;5042455;28;52650;-76
2021/12/03 08:56:04;;;;;;;;;6.00;3.00;;;;;-147.17;100.00;50420.78;5041792;28;55125;-75
2021/12/03 08:58:30;;;;;;;;;2.50;2.50;;;;;-147.17;100.00;50442.44;5046200;28;51287;-75
2021/12/03 09:00:55;;;;;;;;;6.00;5.00;;;;;-147.17;100.00;50438.50;5033247;28;51486;-74
2021/12/03 09:03:21;;;;;;;;;6.25;5.00;;;;;-147.17;100.00;50454.25;5034558;28;51279;-74
2021/12/03 09:05:47;;;;;;;;;5.25;5.00;;;;;-147.17;100.00;50436.53;5033390;28;51179;-76
2021/12/03 09:08:13;;;;;;;;;6.75;6.75;;;;;-147.17;100.00;50466.06;5041026;28;51768;-75
2021/12/03 09:10:40;;;;;;;;;7.00;7.00;;;;;-147.17;100.00;50434.56;5036480;28;51272;-75
2021/12/03 09:13:06;;;;;;;;;6.00;5.25;;;;;-147.17;100.00;50424.72;5032996;28;51273;-75
2021/12/03 09:15:43;;;;;;;;;5.50;5.25;;;;;-147.17;100.00;50440.47;5032187;28;52535;-75
2021/12/03 09:18:21;;;;;;;;;5.75;5.25;;;;;-147.17;100.00;50401.09;5040853;28;52700;-77
2021/12/03 09:20:53;;;;;;;;;5.00;5.00;;;;;-147.17;100.00;50426.69;5059618;28;51217;-75
2021/12/03 09:23:30;;;;;;;;;5.75;5.00;;;;;-147.17;100.00;50434.56;5033789;28;51266;-75
2021/12/03 09:26:05;;;;;;;;;5.00;5.00;;;;;-147.17;100.00;50420.78;5036447;28;52016;-76
2021/12/03 09:28:31;;;;;;;;;5.75;5.00;;;;;-147.17;100.00;50426.69;5053023;28;51181;-75
2021/12/03 09:30:57;;;;;;;;;3.00;3.00;;;;;-147.17;100.00;50428.66;5045247;28;51156;-75
2021/12/03 09:33:27;;;;;;;;;7.75;6.00;;;;;-147.17;100.00;50399.13;5032100;28;51265;-75
2021/12/03 09:35:56;;;;;;;;;3.50;3.50;;;;;-147.17;100.00;50414.88;5036248;28;52095;-74
2021/12/03 09:38:21;;;;;;;;;7.00;5.75;;;;;-147.17;100.00;50470.00;5040900;28;51703;-74
2021/12/03 09:40:47;;;;;;;;;6.00;5.50;;;;;-147.17;100.00;50391.25;5032732;28;51119;-75
2021/12/03 09:43:13;;;;;;;;;5.75;5.50;;;;;-147.17;100.00;50387.31;5037643;28;51154;-76
2021/12/03 09:45:43;;;;;;;;;7.00;6.00;;;;;-147.17;100.00;50387.31;5038722;28;53875;-76
2021/12/03 09:48:24;;;;;;;;;7.50;5.75;;;;;-147.17;100.00;50391.25;5042074;28;51258;-76
2021/12/03 09:50:49;;;;;;;;;10.00;9.75;;;;;-147.17;100.00;50391.25;5037174;28;51747;-74
2021/12/03 09:53:32;;;;;;;;;5.00;5.00;;;;;-147.17;100.00;50414.88;5056422;28;50927;-75
2021/12/03 09:55:58;;;;;;;;;6.25;5.00;;;;;-147.17;100.00;50403.06;5040344;28;51933;-75
2021/12/03 10:01:55;;;;;;;;;5.00;5.00;;;;;-147.17;100.00;50387.31;5039052;28;51316;-74
2021/12/03 10:15:13;;;;;;;;;5.00;5.00;;;;;-147.17;100.00;50371.56;5033942;28;51180;-76
2021/12/03 10:20:22;;;;;;;;;6.00;5.00;;;;;-147.17;100.00;50322.34;5039452;28;51216;-74
2021/12/03 10:31:50;;;;;;;;;6.00;5.00;;;;;-147.17;100.00;50328.25;5045715;28;51238;-70
2021/12/03 10:41:32;;;;;;;;;7.50;6.25;;;;;-147.17;100.00;50296.78;5052386;28;51015;-74
2021/12/03 10:44:16;;;;;;;;;20.00;19.00;;;;;-147.17;100.00;50308.59;5042109;28;51224;-73
2021/12/03 10:49:46;;;;;;;;;6.75;6.75;;;;;-147.17;100.00;50300.72;5039011;28;51705;-74
2021/12/03 10:55:19;;;;;;;;;6.00;5.50;;;;;-147.17;100.00;50259.38;5039602;28;52514;-74
2021/12/03 11:19:24;;;;;;;;;13.00;11.00;;;;;-147.17;100.00;49865.69;5047715;28;51089;-75
2021/12/03 11:29:58;;;;;;;;;11.25;9.00;;;;;-147.17;100.00;50176.69;5047543;28;51102;-73
2021/12/03 12:09:44;;;;;;;;;8.25;5.00;;;;;-147.17;100.00;50115.66;5046495;28;51085;-66
2021/12/03 12:19:27;;;;;;;;;7.00;6.50;;;;;-147.17;100.00;50143.22;4985350;28;51809;-66
2021/12/03 14:25:58;;;;;;;;;5.00;5.00;;;;;-147.17;100.00;50145.19;5044481;28;51588;-65
2021/12/03 14:38:22;;;;;;;;;1.75;1.75;;;;;-147.17;100.00;50168.81;5039936;28;51111;-68
2021/12/03 14:43:44;;;;;;;;;7.25;7.25;;;;;-147.17;100.00;50168.81;5046501;28;51129;-69
2021/12/03 14:49:08;;;;;;;;;3.00;3.00;;;;;-147.17;100.00;50180.63;5047039;28;51344;-69
2021/12/03 15:05:54;;;;;;;;;3.00;2.00;;;;;-147.17;100.00;50178.66;5039795;28;51145;-68
2021/12/03 15:19:20;;;;;;;;;6.75;5.00;;;;;-147.17;100.00;50180.63;5047088;28;51235;-70
2021/12/03 15:27:20;;;;;;;;;5.25;4.50;;;;;-147.17;100.00;50155.03;5042242;28;51065;-68
2021/12/03 15:32:47;;;;;;;;;4.00;3.00;;;;;-147.17;100.00;50158.97;5049240;28;51196;-66
2021/12/03 15:35:18;;;;;;;;;2.75;2.00;;;;;-147.17;100.00;50145.19;5041318;28;51926;-67
2021/12/03 16:04:35;;;;;;;;;3.00;3.00;;;;;-147.17;100.00;50141.25;5033985;28;51005;-68
2021/12/03 16:07:17;;;;;;;;;5.00;2.50;;;;;-147.17;100.00;50135.34;5033992;28;52041;-68
2021/12/03 16:12:40;;;;;;;;;18.25;16.00;;;;;-147.17;100.00;50153.06;5033580;28;51311;-69
2021/12/03 16:20:51;;;;;;;;;5.75;4.00;;;;;-147.17;100.00;50157.00;5040170;28;51118;-69
2021/12/03 16:23:29;;;;;;;;;3.00;3.00;;;;;-147.17;100.00;50135.34;5068063;28;51144;-69
2021/12/03 16:45:10;;;;;;;;;7.00;7.00;;;;;-147.17;100.00;50186.53;5018830;28;51117;-69